sensor_id;sensor_type;location;lat;lon;timestamp;temperature;humidity
68450;SHT30;67758;39.572;2.652;2023-06-22T00:00:51;25.77;83.92
68450;SHT30;67758;39.572;2.652;2023-06-22T00:03:22;25.74;84.04
68450;SHT30;67758;39.572;2.652;2023-06-22T00:05:49;25.70;84.19
68450;SHT30;67758;39.572;2.652;2023-06-22T00:08:16;25.75;84.20
68450;SHT30;67758;39.572;2.652;2023-06-22T00:10:43;25.73;83.87
68450;SHT30;67758;39.572;2.652;2023-06-22T00:13:10;25.75;83.08
68450;SHT30;67758;39.572;2.652;2023-06-22T00:15:37;25.75;81.86
68450;SHT30;67758;39.572;2.652;2023-06-22T00:18:07;25.83;81.70
68450;SHT30;67758;39.572;2.652;2023-06-22T00:20:33;25.88;81.10
68450;SHT30;67758;39.572;2.652;2023-06-22T00:23:03;26.02;80.98
68450;SHT30;67758;39.572;2.652;2023-06-22T00:25:40;26.15;80.89
68450;SHT30;67758;39.572;2.652;2023-06-22T00:28:06;26.14;79.42
68450;SHT30;67758;39.572;2.652;2023-06-22T00:30:33;26.09;79.70
68450;SHT30;67758;39.572;2.652;2023-06-22T00:33:00;26.21;80.22
68450;SHT30;67758;39.572;2.652;2023-06-22T00:35:26;26.14;79.33
68450;SHT30;67758;39.572;2.652;2023-06-22T00:37:55;26.15;79.17
68450;SHT30;67758;39.572;2.652;2023-06-22T00:40:29;26.08;78.98
68450;SHT30;67758;39.572;2.652;2023-06-22T00:42:56;26.17;79.63
68450;SHT30;67758;39.572;2.652;2023-06-22T00:45:23;26.17;78.26
68450;SHT30;67758;39.572;2.652;2023-06-22T00:47:54;26.04;77.70
68450;SHT30;67758;39.572;2.652;2023-06-22T00:50:22;25.93;77.03
68450;SHT30;67758;39.572;2.652;2023-06-22T00:52:51;25.88;77.26
68450;SHT30;67758;39.572;2.652;2023-06-22T00:55:21;25.83;76.94
68450;SHT30;67758;39.572;2.652;2023-06-22T00:57:47;25.85;76.95
68450;SHT30;67758;39.572;2.652;2023-06-22T01:00:16;25.87;76.95
68450;SHT30;67758;39.572;2.652;2023-06-22T01:02:47;25.90;77.21
68450;SHT30;67758;39.572;2.652;2023-06-22T01:05:18;25.91;77.08
68450;SHT30;67758;39.572;2.652;2023-06-22T01:08:00;25.81;77.09
68450;SHT30;67758;39.572;2.652;2023-06-22T01:10:39;25.78;77.48
68450;SHT30;67758;39.572;2.652;2023-06-22T01:16:03;25.78;77.53
68450;SHT30;67758;39.572;2.652;2023-06-22T01:18:32;25.78;77.54
68450;SHT30;67758;39.572;2.652;2023-06-22T01:21:02;25.75;77.53
68450;SHT30;67758;39.572;2.652;2023-06-22T01:26:47;25.84;77.71
68450;SHT30;67758;39.572;2.652;2023-06-22T01:29:20;25.83;78.04
68450;SHT30;67758;39.572;2.652;2023-06-22T01:31:47;25.83;78.18
68450;SHT30;67758;39.572;2.652;2023-06-22T01:34:14;25.83;78.37
68450;SHT30;67758;39.572;2.652;2023-06-22T01:36:42;25.81;78.46
68450;SHT30;67758;39.572;2.652;2023-06-22T01:39:09;25.80;78.50
68450;SHT30;67758;39.572;2.652;2023-06-22T01:41:37;25.77;78.44
68450;SHT30;67758;39.572;2.652;2023-06-22T01:44:05;25.70;78.41
68450;SHT30;67758;39.572;2.652;2023-06-22T01:46:34;25.66;78.74
68450;SHT30;67758;39.572;2.652;2023-06-22T01:49:02;25.60;79.10
68450;SHT30;67758;39.572;2.652;2023-06-22T01:51:28;25.54;80.31
68450;SHT30;67758;39.572;2.652;2023-06-22T01:53:53;25.53;80.29
68450;SHT30;67758;39.572;2.652;2023-06-22T01:56:19;25.50;80.42
68450;SHT30;67758;39.572;2.652;2023-06-22T01:58:55;25.43;79.94
68450;SHT30;67758;39.572;2.652;2023-06-22T02:01:28;25.51;80.02
68450;SHT30;67758;39.572;2.652;2023-06-22T02:04:21;25.51;81.02
68450;SHT30;67758;39.572;2.652;2023-06-22T02:06:50;25.49;81.03
68450;SHT30;67758;39.572;2.652;2023-06-22T02:09:19;25.47;81.34
68450;SHT30;67758;39.572;2.652;2023-06-22T02:11:47;25.43;81.64
68450;SHT30;67758;39.572;2.652;2023-06-22T02:14:14;25.39;81.92
68450;SHT30;67758;39.572;2.652;2023-06-22T02:16:41;25.37;82.14
68450;SHT30;67758;39.572;2.652;2023-06-22T02:19:07;25.42;82.03
68450;SHT30;67758;39.572;2.652;2023-06-22T02:21:33;25.46;81.93
68450;SHT30;67758;39.572;2.652;2023-06-22T02:23:59;25.56;81.68
68450;SHT30;67758;39.572;2.652;2023-06-22T02:26:25;25.54;81.68
68450;SHT30;67758;39.572;2.652;2023-06-22T02:28:52;25.66;81.45
68450;SHT30;67758;39.572;2.652;2023-06-22T02:31:18;25.78;81.06
68450;SHT30;67758;39.572;2.652;2023-06-22T02:33:44;25.85;80.94
68450;SHT30;67758;39.572;2.652;2023-06-22T02:36:10;25.77;81.08
68450;SHT30;67758;39.572;2.652;2023-06-22T02:38:41;25.75;81.28
68450;SHT30;67758;39.572;2.652;2023-06-22T02:41:16;25.71;81.37
68450;SHT30;67758;39.572;2.652;2023-06-22T02:43:45;25.70;81.44
68450;SHT30;67758;39.572;2.652;2023-06-22T02:46:12;25.64;81.71
68450;SHT30;67758;39.572;2.652;2023-06-22T02:48:39;25.59;82.00
68450;SHT30;67758;39.572;2.652;2023-06-22T02:51:05;25.59;82.01
68450;SHT30;67758;39.572;2.652;2023-06-22T02:53:32;25.50;82.11
68450;SHT30;67758;39.572;2.652;2023-06-22T02:55:57;25.51;82.23
68450;SHT30;67758;39.572;2.652;2023-06-22T02:58:23;25.51;82.23
68450;SHT30;67758;39.572;2.652;2023-06-22T03:00:50;25.53;82.49
68450;SHT30;67758;39.572;2.652;2023-06-22T03:03:19;25.60;82.28
68450;SHT30;67758;39.572;2.652;2023-06-22T03:05:45;25.71;81.98
68450;SHT30;67758;39.572;2.652;2023-06-22T03:08:10;25.70;82.04
68450;SHT30;67758;39.572;2.652;2023-06-22T03:10:36;25.78;81.87
68450;SHT30;67758;39.572;2.652;2023-06-22T03:13:02;25.95;81.45
68450;SHT30;67758;39.572;2.652;2023-06-22T03:15:28;26.01;81.35
68450;SHT30;67758;39.572;2.652;2023-06-22T03:17:58;26.04;81.36
68450;SHT30;67758;39.572;2.652;2023-06-22T03:20:23;26.00;81.51
68450;SHT30;67758;39.572;2.652;2023-06-22T03:22:50;25.93;81.79
68450;SHT30;67758;39.572;2.652;2023-06-22T03:25:16;25.84;82.11
68450;SHT30;67758;39.572;2.652;2023-06-22T03:27:42;25.71;82.49
68450;SHT30;67758;39.572;2.652;2023-06-22T03:30:11;25.80;82.43
68450;SHT30;67758;39.572;2.652;2023-06-22T03:32:37;25.84;82.35
68450;SHT30;67758;39.572;2.652;2023-06-22T03:35:03;25.93;82.22
68450;SHT30;67758;39.572;2.652;2023-06-22T03:37:29;25.97;82.25
68450;SHT30;67758;39.572;2.652;2023-06-22T03:39:54;25.97;82.31
68450;SHT30;67758;39.572;2.652;2023-06-22T03:42:20;25.93;82.33
68450;SHT30;67758;39.572;2.652;2023-06-22T03:44:46;25.85;82.47
68450;SHT30;67758;39.572;2.652;2023-06-22T03:47:12;25.87;82.47
68450;SHT30;67758;39.572;2.652;2023-06-22T03:49:38;25.81;82.68
68450;SHT30;67758;39.572;2.652;2023-06-22T03:52:04;25.81;82.73
68450;SHT30;67758;39.572;2.652;2023-06-22T03:54:31;25.87;82.51
68450;SHT30;67758;39.572;2.652;2023-06-22T03:56:57;25.91;82.48
68450;SHT30;67758;39.572;2.652;2023-06-22T03:59:23;25.94;82.28
68450;SHT30;67758;39.572;2.652;2023-06-22T04:01:49;25.94;81.98
68450;SHT30;67758;39.572;2.652;2023-06-22T04:04:17;25.95;81.78
68450;SHT30;67758;39.572;2.652;2023-06-22T04:06:43;25.98;81.74
68450;SHT30;67758;39.572;2.652;2023-06-22T04:09:09;25.95;81.83
68450;SHT30;67758;39.572;2.652;2023-06-22T04:11:34;25.97;82.24
68450;SHT30;67758;39.572;2.652;2023-06-22T04:14:00;25.97;83.44
68450;SHT30;67758;39.572;2.652;2023-06-22T04:16:26;25.93;83.44
68450;SHT30;67758;39.572;2.652;2023-06-22T04:18:52;25.83;84.15
68450;SHT30;67758;39.572;2.652;2023-06-22T04:21:17;25.74;84.20
68450;SHT30;67758;39.572;2.652;2023-06-22T04:23:45;25.80;84.09
68450;SHT30;67758;39.572;2.652;2023-06-22T04:26:12;25.85;84.37
68450;SHT30;67758;39.572;2.652;2023-06-22T04:28:37;25.83;84.20
68450;SHT30;67758;39.572;2.652;2023-06-22T04:31:03;25.85;84.02
68450;SHT30;67758;39.572;2.652;2023-06-22T04:33:30;25.93;83.59
68450;SHT30;67758;39.572;2.652;2023-06-22T04:35:56;25.81;82.43
68450;SHT30;67758;39.572;2.652;2023-06-22T04:38:23;25.74;80.02
68450;SHT30;67758;39.572;2.652;2023-06-22T04:40:49;25.73;80.03
68450;SHT30;67758;39.572;2.652;2023-06-22T04:43:15;25.73;80.13
68450;SHT30;67758;39.572;2.652;2023-06-22T04:45:41;25.69;80.55
68450;SHT30;67758;39.572;2.652;2023-06-22T04:48:07;25.66;81.04
68450;SHT30;67758;39.572;2.652;2023-06-22T04:50:38;25.61;81.41
68450;SHT30;67758;39.572;2.652;2023-06-22T04:53:04;25.61;81.70
68450;SHT30;67758;39.572;2.652;2023-06-22T04:55:32;25.59;82.03
68450;SHT30;67758;39.572;2.652;2023-06-22T04:57:57;25.56;82.15
68450;SHT30;67758;39.572;2.652;2023-06-22T05:00:30;25.59;82.14
68450;SHT30;67758;39.572;2.652;2023-06-22T05:02:57;25.57;82.13
68450;SHT30;67758;39.572;2.652;2023-06-22T05:05:23;25.60;82.23
68450;SHT30;67758;39.572;2.652;2023-06-22T05:07:51;25.61;81.89
68450;SHT30;67758;39.572;2.652;2023-06-22T05:10:19;25.63;81.72
68450;SHT30;67758;39.572;2.652;2023-06-22T05:12:46;25.67;81.61
68450;SHT30;67758;39.572;2.652;2023-06-22T05:15:12;25.73;81.23
68450;SHT30;67758;39.572;2.652;2023-06-22T05:17:38;25.77;80.96
68450;SHT30;67758;39.572;2.652;2023-06-22T05:20:13;25.87;80.77
68450;SHT30;67758;39.572;2.652;2023-06-22T05:22:39;25.88;80.56
68450;SHT30;67758;39.572;2.652;2023-06-22T05:25:08;25.87;82.53
68450;SHT30;67758;39.572;2.652;2023-06-22T05:27:36;25.81;83.37
68450;SHT30;67758;39.572;2.652;2023-06-22T05:30:06;25.84;83.20
68450;SHT30;67758;39.572;2.652;2023-06-22T05:32:37;25.88;83.18
68450;SHT30;67758;39.572;2.652;2023-06-22T05:35:04;25.94;83.83
68450;SHT30;67758;39.572;2.652;2023-06-22T05:37:30;26.05;83.02
68450;SHT30;67758;39.572;2.652;2023-06-22T05:39:56;26.06;83.65
68450;SHT30;67758;39.572;2.652;2023-06-22T05:42:23;26.12;83.83
68450;SHT30;67758;39.572;2.652;2023-06-22T05:44:48;26.14;84.04
68450;SHT30;67758;39.572;2.652;2023-06-22T05:47:14;26.08;84.23
68450;SHT30;67758;39.572;2.652;2023-06-22T05:49:40;26.17;83.53
68450;SHT30;67758;39.572;2.652;2023-06-22T05:52:06;26.14;83.47
68450;SHT30;67758;39.572;2.652;2023-06-22T05:54:32;26.12;83.31
68450;SHT30;67758;39.572;2.652;2023-06-22T05:56:58;26.15;83.23
68450;SHT30;67758;39.572;2.652;2023-06-22T05:59:24;26.17;83.01
68450;SHT30;67758;39.572;2.652;2023-06-22T06:01:51;26.18;83.02
68450;SHT30;67758;39.572;2.652;2023-06-22T06:04:19;26.31;82.83
68450;SHT30;67758;39.572;2.652;2023-06-22T06:06:45;26.28;82.76
68450;SHT30;67758;39.572;2.652;2023-06-22T06:09:16;26.31;82.59
68450;SHT30;67758;39.572;2.652;2023-06-22T06:11:41;26.29;82.67
68450;SHT30;67758;39.572;2.652;2023-06-22T06:14:07;26.26;82.66
68450;SHT30;67758;39.572;2.652;2023-06-22T06:16:33;26.21;82.67
68450;SHT30;67758;39.572;2.652;2023-06-22T06:18:59;26.18;82.99
68450;SHT30;67758;39.572;2.652;2023-06-22T06:21:25;26.18;83.17
68450;SHT30;67758;39.572;2.652;2023-06-22T06:23:51;26.22;83.29
68450;SHT30;67758;39.572;2.652;2023-06-22T06:26:16;26.22;83.51
68450;SHT30;67758;39.572;2.652;2023-06-22T06:28:45;26.15;83.78
68450;SHT30;67758;39.572;2.652;2023-06-22T06:31:11;26.18;83.86
68450;SHT30;67758;39.572;2.652;2023-06-22T06:33:37;26.24;84.09
68450;SHT30;67758;39.572;2.652;2023-06-22T06:36:04;26.26;84.43
68450;SHT30;67758;39.572;2.652;2023-06-22T06:38:30;26.21;84.98
68450;SHT30;67758;39.572;2.652;2023-06-22T06:40:56;26.18;85.49
68450;SHT30;67758;39.572;2.652;2023-06-22T06:43:22;26.18;84.95
68450;SHT30;67758;39.572;2.652;2023-06-22T06:45:49;26.20;85.10
68450;SHT30;67758;39.572;2.652;2023-06-22T06:48:14;26.15;85.02
68450;SHT30;67758;39.572;2.652;2023-06-22T06:50:40;26.11;85.08
68450;SHT30;67758;39.572;2.652;2023-06-22T06:53:06;26.12;85.07
68450;SHT30;67758;39.572;2.652;2023-06-22T06:55:32;26.25;84.68
68450;SHT30;67758;39.572;2.652;2023-06-22T06:57:58;26.26;84.40
68450;SHT30;67758;39.572;2.652;2023-06-22T07:00:25;26.32;83.76
68450;SHT30;67758;39.572;2.652;2023-06-22T07:02:54;26.29;83.12
68450;SHT30;67758;39.572;2.652;2023-06-22T07:05:20;26.36;82.22
68450;SHT30;67758;39.572;2.652;2023-06-22T07:07:45;26.44;81.79
68450;SHT30;67758;39.572;2.652;2023-06-22T07:10:11;26.45;79.93
68450;SHT30;67758;39.572;2.652;2023-06-22T07:12:37;26.59;80.90
68450;SHT30;67758;39.572;2.652;2023-06-22T07:15:07;26.69;80.10
68450;SHT30;67758;39.572;2.652;2023-06-22T07:17:34;26.79;77.52
68450;SHT30;67758;39.572;2.652;2023-06-22T07:20:00;26.87;76.84
68450;SHT30;67758;39.572;2.652;2023-06-22T07:22:26;26.89;76.19
68450;SHT30;67758;39.572;2.652;2023-06-22T07:24:52;26.87;75.99
68450;SHT30;67758;39.572;2.652;2023-06-22T07:27:18;26.87;75.92
68450;SHT30;67758;39.572;2.652;2023-06-22T07:29:44;26.83;76.13
68450;SHT30;67758;39.572;2.652;2023-06-22T07:32:10;26.90;76.40
68450;SHT30;67758;39.572;2.652;2023-06-22T07:34:36;27.02;75.74
68450;SHT30;67758;39.572;2.652;2023-06-22T07:37:02;27.14;74.52
68450;SHT30;67758;39.572;2.652;2023-06-22T07:39:28;27.29;73.61
68450;SHT30;67758;39.572;2.652;2023-06-22T07:41:53;27.43;73.39
68450;SHT30;67758;39.572;2.652;2023-06-22T07:44:19;27.44;73.62
68450;SHT30;67758;39.572;2.652;2023-06-22T07:46:45;27.69;72.52
68450;SHT30;67758;39.572;2.652;2023-06-22T07:49:11;27.78;72.10
68450;SHT30;67758;39.572;2.652;2023-06-22T07:51:36;27.75;72.40
68450;SHT30;67758;39.572;2.652;2023-06-22T07:54:02;27.81;72.78
68450;SHT30;67758;39.572;2.652;2023-06-22T07:56:28;27.65;73.12
68450;SHT30;67758;39.572;2.652;2023-06-22T07:58:53;27.44;73.64
68450;SHT30;67758;39.572;2.652;2023-06-22T08:01:20;27.59;73.41
68450;SHT30;67758;39.572;2.652;2023-06-22T08:03:49;27.68;72.14
68450;SHT30;67758;39.572;2.652;2023-06-22T08:06:15;27.69;72.26
68450;SHT30;67758;39.572;2.652;2023-06-22T08:08:41;27.91;71.51
68450;SHT30;67758;39.572;2.652;2023-06-22T08:11:08;27.69;72.35
68450;SHT30;67758;39.572;2.652;2023-06-22T08:13:34;27.85;71.11
68450;SHT30;67758;39.572;2.652;2023-06-22T08:16:00;27.95;70.77
68450;SHT30;67758;39.572;2.652;2023-06-22T08:18:25;27.88;70.67
68450;SHT30;67758;39.572;2.652;2023-06-22T08:20:53;27.99;70.15
68450;SHT30;67758;39.572;2.652;2023-06-22T08:23:19;27.92;70.04
68450;SHT30;67758;39.572;2.652;2023-06-22T08:25:45;28.05;69.81
68450;SHT30;67758;39.572;2.652;2023-06-22T08:28:11;28.10;69.77
68450;SHT30;67758;39.572;2.652;2023-06-22T08:30:38;28.25;69.47
68450;SHT30;67758;39.572;2.652;2023-06-22T08:33:05;28.36;69.45
68450;SHT30;67758;39.572;2.652;2023-06-22T08:35:31;28.35;69.28
68450;SHT30;67758;39.572;2.652;2023-06-22T08:37:56;28.43;68.85
68450;SHT30;67758;39.572;2.652;2023-06-22T08:40:22;28.28;69.77
68450;SHT30;67758;39.572;2.652;2023-06-22T08:42:48;27.96;71.37
68450;SHT30;67758;39.572;2.652;2023-06-22T08:45:14;28.04;71.35
68450;SHT30;67758;39.572;2.652;2023-06-22T08:47:41;28.20;70.72
68450;SHT30;67758;39.572;2.652;2023-06-22T08:50:11;28.18;70.28
68450;SHT30;67758;39.572;2.652;2023-06-22T08:52:38;27.74;70.40
68450;SHT30;67758;39.572;2.652;2023-06-22T08:55:06;27.59;70.94
68450;SHT30;67758;39.572;2.652;2023-06-22T08:57:32;27.57;70.89
68450;SHT30;67758;39.572;2.652;2023-06-22T08:59:58;27.85;70.42
68450;SHT30;67758;39.572;2.652;2023-06-22T09:02:25;27.96;70.24
68450;SHT30;67758;39.572;2.652;2023-06-22T09:04:51;28.05;70.49
68450;SHT30;67758;39.572;2.652;2023-06-22T09:07:21;27.99;70.09
68450;SHT30;67758;39.572;2.652;2023-06-22T09:09:49;28.20;69.68
68450;SHT30;67758;39.572;2.652;2023-06-22T09:12:16;28.19;69.68
68450;SHT30;67758;39.572;2.652;2023-06-22T09:14:41;27.96;70.20
68450;SHT30;67758;39.572;2.652;2023-06-22T09:17:07;28.35;69.56
68450;SHT30;67758;39.572;2.652;2023-06-22T09:19:33;28.38;68.87
68450;SHT30;67758;39.572;2.652;2023-06-22T09:21:59;28.38;69.07
68450;SHT30;67758;39.572;2.652;2023-06-22T09:24:26;28.45;68.94
68450;SHT30;67758;39.572;2.652;2023-06-22T09:26:52;28.57;67.60
68450;SHT30;67758;39.572;2.652;2023-06-22T09:29:18;28.77;67.43
68450;SHT30;67758;39.572;2.652;2023-06-22T09:31:44;28.98;66.46
68450;SHT30;67758;39.572;2.652;2023-06-22T09:34:10;29.27;64.68
68450;SHT30;67758;39.572;2.652;2023-06-22T09:36:35;29.20;64.24
68450;SHT30;67758;39.572;2.652;2023-06-22T09:39:02;29.00;64.39
68450;SHT30;67758;39.572;2.652;2023-06-22T09:41:31;28.97;64.14
68450;SHT30;67758;39.572;2.652;2023-06-22T09:43:57;28.98;63.34
68450;SHT30;67758;39.572;2.652;2023-06-22T09:46:25;29.11;62.94
68450;SHT30;67758;39.572;2.652;2023-06-22T09:49:00;29.75;61.63
68450;SHT30;67758;39.572;2.652;2023-06-22T09:51:26;30.24;59.78
68450;SHT30;67758;39.572;2.652;2023-06-22T09:53:52;30.63;58.34
68450;SHT30;67758;39.572;2.652;2023-06-22T09:56:23;30.50;57.49
68450;SHT30;67758;39.572;2.652;2023-06-22T09:58:49;30.47;58.53
68450;SHT30;67758;39.572;2.652;2023-06-22T10:01:18;30.40;60.94
68450;SHT30;67758;39.572;2.652;2023-06-22T10:03:43;30.84;62.51
68450;SHT30;67758;39.572;2.652;2023-06-22T10:06:09;31.12;62.25
68450;SHT30;67758;39.572;2.652;2023-06-22T10:08:35;31.61;60.63
68450;SHT30;67758;39.572;2.652;2023-06-22T10:11:03;31.61;60.49
68450;SHT30;67758;39.572;2.652;2023-06-22T10:13:37;32.36;57.40
68450;SHT30;67758;39.572;2.652;2023-06-22T10:16:02;32.41;57.37
68450;SHT30;67758;39.572;2.652;2023-06-22T10:18:28;31.31;55.18
68450;SHT30;67758;39.572;2.652;2023-06-22T10:20:54;30.95;55.25
68450;SHT30;67758;39.572;2.652;2023-06-22T10:23:20;31.61;53.97
68450;SHT30;67758;39.572;2.652;2023-06-22T10:25:45;31.15;54.87
68450;SHT30;67758;39.572;2.652;2023-06-22T10:28:12;31.49;53.90
68450;SHT30;67758;39.572;2.652;2023-06-22T10:30:46;31.14;55.06
68450;SHT30;67758;39.572;2.652;2023-06-22T10:33:14;30.91;55.65
68450;SHT30;67758;39.572;2.652;2023-06-22T10:35:40;30.73;55.96
68450;SHT30;67758;39.572;2.652;2023-06-22T10:38:06;31.49;54.86
68450;SHT30;67758;39.572;2.652;2023-06-22T10:40:32;31.34;55.07
68450;SHT30;67758;39.572;2.652;2023-06-22T10:42:58;31.24;55.13
68450;SHT30;67758;39.572;2.652;2023-06-22T10:45:24;30.87;56.12
68450;SHT30;67758;39.572;2.652;2023-06-22T10:47:49;31.69;53.76
68450;SHT30;67758;39.572;2.652;2023-06-22T10:50:15;33.06;51.03
68450;SHT30;67758;39.572;2.652;2023-06-22T10:52:45;32.09;52.76
68450;SHT30;67758;39.572;2.652;2023-06-22T10:55:14;32.03;53.08
68450;SHT30;67758;39.572;2.652;2023-06-22T10:57:47;32.03;53.10
68450;SHT30;67758;39.572;2.652;2023-06-22T11:00:14;32.51;51.66
68450;SHT30;67758;39.572;2.652;2023-06-22T11:02:41;32.14;51.93
68450;SHT30;67758;39.572;2.652;2023-06-22T11:05:07;32.63;50.00
68450;SHT30;67758;39.572;2.652;2023-06-22T11:07:33;33.22;47.29
68450;SHT30;67758;39.572;2.652;2023-06-22T11:09:59;31.58;49.87
68450;SHT30;67758;39.572;2.652;2023-06-22T11:12:24;31.21;50.50
68450;SHT30;67758;39.572;2.652;2023-06-22T11:14:50;31.93;49.36
68450;SHT30;67758;39.572;2.652;2023-06-22T11:17:17;32.12;48.56
68450;SHT30;67758;39.572;2.652;2023-06-22T11:19:45;32.78;47.75
68450;SHT30;67758;39.572;2.652;2023-06-22T11:22:10;32.92;46.83
68450;SHT30;67758;39.572;2.652;2023-06-22T11:24:36;33.35;45.95
68450;SHT30;67758;39.572;2.652;2023-06-22T11:27:01;34.04;44.60
68450;SHT30;67758;39.572;2.652;2023-06-22T11:29:27;33.47;45.01
68450;SHT30;67758;39.572;2.652;2023-06-22T11:31:53;34.65;42.88
68450;SHT30;67758;39.572;2.652;2023-06-22T11:34:19;35.61;41.04
68450;SHT30;67758;39.572;2.652;2023-06-22T11:36:47;35.29;41.83
68450;SHT30;67758;39.572;2.652;2023-06-22T11:39:17;35.57;40.94
68450;SHT30;67758;39.572;2.652;2023-06-22T11:41:42;35.57;40.84
68450;SHT30;67758;39.572;2.652;2023-06-22T11:44:08;35.83;39.97
68450;SHT30;67758;39.572;2.652;2023-06-22T11:46:34;34.48;42.48
68450;SHT30;67758;39.572;2.652;2023-06-22T11:49:03;35.66;41.03
68450;SHT30;67758;39.572;2.652;2023-06-22T11:51:32;36.16;39.70
68450;SHT30;67758;39.572;2.652;2023-06-22T11:53:57;36.10;40.27
68450;SHT30;67758;39.572;2.652;2023-06-22T11:56:24;36.74;39.38
68450;SHT30;67758;39.572;2.652;2023-06-22T11:58:49;36.69;38.81
68450;SHT30;67758;39.572;2.652;2023-06-22T12:01:18;35.59;40.40
68450;SHT30;67758;39.572;2.652;2023-06-22T12:03:44;35.49;40.91
68450;SHT30;67758;39.572;2.652;2023-06-22T12:06:10;34.82;42.04
68450;SHT30;67758;39.572;2.652;2023-06-22T12:08:35;34.91;42.17
68450;SHT30;67758;39.572;2.652;2023-06-22T12:11:03;34.84;42.40
68450;SHT30;67758;39.572;2.652;2023-06-22T12:13:29;34.94;42.35
68450;SHT30;67758;39.572;2.652;2023-06-22T12:15:55;35.22;41.54
68450;SHT30;67758;39.572;2.652;2023-06-22T12:18:20;36.05;40.74
68450;SHT30;67758;39.572;2.652;2023-06-22T12:20:47;35.97;40.49
68450;SHT30;67758;39.572;2.652;2023-06-22T12:23:24;35.19;41.81
68450;SHT30;67758;39.572;2.652;2023-06-22T12:26:10;35.66;41.97
68450;SHT30;67758;39.572;2.652;2023-06-22T12:28:36;35.15;42.33
68450;SHT30;67758;39.572;2.652;2023-06-22T12:31:02;34.98;43.32
68450;SHT30;67758;39.572;2.652;2023-06-22T12:33:27;35.79;41.75
68450;SHT30;67758;39.572;2.652;2023-06-22T12:35:53;35.36;41.93
68450;SHT30;67758;39.572;2.652;2023-06-22T12:38:19;35.46;42.19
68450;SHT30;67758;39.572;2.652;2023-06-22T12:40:46;36.51;40.75
68450;SHT30;67758;39.572;2.652;2023-06-22T12:43:12;37.54;38.45
68450;SHT30;67758;39.572;2.652;2023-06-22T12:45:41;38.05;38.00
68450;SHT30;67758;39.572;2.652;2023-06-22T12:48:38;37.84;41.85
68450;SHT30;67758;39.572;2.652;2023-06-22T12:51:08;37.84;42.72
68450;SHT30;67758;39.572;2.652;2023-06-22T12:53:34;36.65;44.49
68450;SHT30;67758;39.572;2.652;2023-06-22T12:56:03;36.91;43.80
68450;SHT30;67758;39.572;2.652;2023-06-22T12:58:29;37.44;43.08
68450;SHT30;67758;39.572;2.652;2023-06-22T13:00:54;37.33;42.20
68450;SHT30;67758;39.572;2.652;2023-06-22T13:03:20;37.42;40.22
68450;SHT30;67758;39.572;2.652;2023-06-22T13:05:46;37.20;42.25
68450;SHT30;67758;39.572;2.652;2023-06-22T13:08:12;37.67;39.95
68450;SHT30;67758;39.572;2.652;2023-06-22T13:10:39;38.24;39.75
68450;SHT30;67758;39.572;2.652;2023-06-22T13:13:07;38.72;40.03
68450;SHT30;67758;39.572;2.652;2023-06-22T13:15:37;38.36;40.93
68450;SHT30;67758;39.572;2.652;2023-06-22T13:18:08;37.97;41.87
68450;SHT30;67758;39.572;2.652;2023-06-22T13:20:34;37.74;41.66
68450;SHT30;67758;39.572;2.652;2023-06-22T13:23:00;37.81;42.57
68450;SHT30;67758;39.572;2.652;2023-06-22T13:25:25;38.04;40.26
68450;SHT30;67758;39.572;2.652;2023-06-22T13:27:52;37.97;42.09
68450;SHT30;67758;39.572;2.652;2023-06-22T13:30:17;37.70;41.66
68450;SHT30;67758;39.572;2.652;2023-06-22T13:32:43;37.37;44.69
68450;SHT30;67758;39.572;2.652;2023-06-22T13:35:11;36.72;45.15
68450;SHT30;67758;39.572;2.652;2023-06-22T13:37:40;36.69;43.07
68450;SHT30;67758;39.572;2.652;2023-06-22T13:40:07;36.74;42.85
68450;SHT30;67758;39.572;2.652;2023-06-22T13:42:36;36.95;41.70
68450;SHT30;67758;39.572;2.652;2023-06-22T13:45:02;36.71;42.90
68450;SHT30;67758;39.572;2.652;2023-06-22T13:47:35;36.78;42.52
68450;SHT30;67758;39.572;2.652;2023-06-22T13:50:12;36.37;41.79
68450;SHT30;67758;39.572;2.652;2023-06-22T13:52:50;36.19;43.63
68450;SHT30;67758;39.572;2.652;2023-06-22T13:55:16;36.19;43.40
68450;SHT30;67758;39.572;2.652;2023-06-22T13:57:42;35.81;45.93
68450;SHT30;67758;39.572;2.652;2023-06-22T14:00:08;35.67;46.28
68450;SHT30;67758;39.572;2.652;2023-06-22T14:02:34;35.60;43.48
68450;SHT30;67758;39.572;2.652;2023-06-22T14:05:00;35.72;42.93
68450;SHT30;67758;39.572;2.652;2023-06-22T14:07:32;35.84;41.10
68450;SHT30;67758;39.572;2.652;2023-06-22T14:10:00;35.90;41.86
68450;SHT30;67758;39.572;2.652;2023-06-22T14:12:29;36.55;41.96
68450;SHT30;67758;39.572;2.652;2023-06-22T14:15:05;36.93;42.19
68450;SHT30;67758;39.572;2.652;2023-06-22T14:17:30;37.81;40.35
68450;SHT30;67758;39.572;2.652;2023-06-22T14:19:56;38.32;38.69
68450;SHT30;67758;39.572;2.652;2023-06-22T14:22:22;37.53;38.79
68450;SHT30;67758;39.572;2.652;2023-06-22T14:24:52;37.20;38.63
68450;SHT30;67758;39.572;2.652;2023-06-22T14:27:18;36.96;39.33
68450;SHT30;67758;39.572;2.652;2023-06-22T14:29:46;37.03;38.43
68450;SHT30;67758;39.572;2.652;2023-06-22T14:32:12;36.79;39.59
68450;SHT30;67758;39.572;2.652;2023-06-22T14:34:38;36.85;39.45
68450;SHT30;67758;39.572;2.652;2023-06-22T14:37:06;36.61;39.61
68450;SHT30;67758;39.572;2.652;2023-06-22T14:39:33;36.69;40.31
68450;SHT30;67758;39.572;2.652;2023-06-22T14:41:59;37.54;38.57
68450;SHT30;67758;39.572;2.652;2023-06-22T14:44:26;38.49;37.63
68450;SHT30;67758;39.572;2.652;2023-06-22T14:46:54;38.28;36.70
68450;SHT30;67758;39.572;2.652;2023-06-22T14:49:20;38.18;36.93
68450;SHT30;67758;39.572;2.652;2023-06-22T14:51:46;38.20;37.50
68450;SHT30;67758;39.572;2.652;2023-06-22T14:54:12;38.15;36.91
68450;SHT30;67758;39.572;2.652;2023-06-22T14:56:37;38.47;35.99
68450;SHT30;67758;39.572;2.652;2023-06-22T14:59:03;38.93;35.44
68450;SHT30;67758;39.572;2.652;2023-06-22T15:01:29;39.44;34.66
68450;SHT30;67758;39.572;2.652;2023-06-22T15:03:55;39.19;34.95
68450;SHT30;67758;39.572;2.652;2023-06-22T15:06:21;38.68;36.13
68450;SHT30;67758;39.572;2.652;2023-06-22T15:08:47;38.29;37.23
68450;SHT30;67758;39.572;2.652;2023-06-22T15:11:16;38.20;35.64
68450;SHT30;67758;39.572;2.652;2023-06-22T15:13:42;37.76;36.87
68450;SHT30;67758;39.572;2.652;2023-06-22T15:16:08;38.17;35.92
68450;SHT30;67758;39.572;2.652;2023-06-22T15:18:35;38.20;35.93
68450;SHT30;67758;39.572;2.652;2023-06-22T15:21:02;38.79;35.22
68450;SHT30;67758;39.572;2.652;2023-06-22T15:23:29;39.22;35.04
68450;SHT30;67758;39.572;2.652;2023-06-22T15:25:58;39.81;34.18
68450;SHT30;67758;39.572;2.652;2023-06-22T15:28:25;39.51;33.67
68450;SHT30;67758;39.572;2.652;2023-06-22T15:30:50;39.12;34.27
68450;SHT30;67758;39.572;2.652;2023-06-22T15:33:17;39.33;34.46
68450;SHT30;67758;39.572;2.652;2023-06-22T15:35:43;40.05;34.52